PRIVATE WETTERSTATION BILLIGHEIM-ALLFELD                       ZURCK
Wetterdaten: Samstag, 22.07.2017
Datum Zeit Temp. A. Temp. A. min Temp. A. max Feuchte A. Luftdruck Regen Wind Richtung Richtung Sonnenschein ET Solar Taupunkt Windchill Windben Empfang
22.07.2017 00:00 18,1 C 18,1 C 18,3 C 87 % 1010,9 hPa 0,0 l/m 3,2 km/h (1 Bft) NW 315 0 min 0,025 mm 0 W/m 15,9 C 18,1 C 11,3 km/h (2 Bft) 98 %
22.07.2017 00:10 17,9 C 17,9 C 18,1 C 88 % 1011,1 hPa 0,2 l/m 4,8 km/h (1 Bft) S-SW 202 0 min 0,000 mm 0 W/m 15,9 C 17,9 C 16,1 km/h (3 Bft) 97 %
22.07.2017 00:20 17,7 C 17,7 C 17,9 C 88 % 1011,7 hPa 0,2 l/m 6,4 km/h (2 Bft) SO 135 0 min 0,000 mm 0 W/m 15,7 C 17,7 C 17,7 km/h (3 Bft) 98 %
22.07.2017 00:30 17,3 C 17,3 C 17,7 C 88 % 1012,4 hPa 0,8 l/m 11,3 km/h (2 Bft) S-SO 157 0 min 0,000 mm 0 W/m 15,3 C 15,2 C 29,0 km/h (5 Bft) 97 %
22.07.2017 00:40 16,9 C 16,9 C 17,3 C 88 % 1012,4 hPa 2,2 l/m 9,7 km/h (2 Bft) S-SO 157 0 min 0,000 mm 0 W/m 14,9 C 15,3 C 24,1 km/h (4 Bft) 97 %
22.07.2017 00:50 16,8 C 16,7 C 16,9 C 88 % 1011,7 hPa 2,8 l/m 1,6 km/h (1 Bft) SO 135 0 min 0,000 mm 0 W/m 14,8 C 16,8 C 9,7 km/h (2 Bft) 97 %
22.07.2017 01:00 16,7 C 16,7 C 16,8 C 88 % 1011,8 hPa 0,8 l/m 0,0 km/h (0 Bft) N 0 0 min 0,025 mm 0 W/m 14,7 C 16,7 C 0,0 km/h (0 Bft) 98 %
22.07.2017 01:10 16,8 C 16,7 C 16,8 C 88 % 1011,6 hPa 1,2 l/m 0,0 km/h (0 Bft) N 0 0 min 0,000 mm 0 W/m 14,8 C 16,8 C 0,0 km/h (0 Bft) 98 %
22.07.2017 01:20 16,8 C 16,8 C 16,8 C 89 % 1011,3 hPa 1,2 l/m 0,0 km/h (0 Bft) N-NW 337 0 min 0,000 mm 0 W/m 15,0 C 16,8 C 1,6 km/h (1 Bft) 97 %
22.07.2017 01:30 16,8 C 16,8 C 16,8 C 89 % 1010,8 hPa 0,6 l/m 0,0 km/h (0 Bft) N-NW 337 0 min 0,000 mm 0 W/m 15,0 C 16,8 C 8,0 km/h (2 Bft) 98 %
22.07.2017 01:40 16,8 C 16,8 C 16,8 C 89 % 1010,6 hPa 0,4 l/m 1,6 km/h (1 Bft) NW 315 0 min 0,000 mm 0 W/m 15,0 C 16,8 C 8,0 km/h (2 Bft) 97 %
22.07.2017 01:50 16,8 C 16,8 C 16,8 C 89 % 1010,7 hPa 0,2 l/m 0,0 km/h (0 Bft) NW 315 0 min 0,000 mm 0 W/m 15,0 C 16,8 C 6,4 km/h (2 Bft) 98 %
22.07.2017 02:00 16,8 C 16,8 C 16,8 C 89 % 1010,5 hPa 0,0 l/m 0,0 km/h (0 Bft) N 0 0 min 0,000 mm 0 W/m 15,0 C 16,8 C 0,0 km/h (0 Bft) 97 %
22.07.2017 02:10 16,8 C 16,8 C 16,8 C 89 % 1010,9 hPa 0,0 l/m 0,0 km/h (0 Bft) N 0 0 min 0,000 mm 0 W/m 15,0 C 16,8 C 0,0 km/h (0 Bft) 97 %
22.07.2017 02:20 16,8 C 16,7 C 16,8 C 89 % 1010,5 hPa 0,2 l/m 0,0 km/h (0 Bft) NW 315 0 min 0,000 mm 0 W/m 15,0 C 16,8 C 1,6 km/h (1 Bft) 98 %
22.07.2017 02:30 16,8 C 16,8 C 16,8 C 89 % 1010,3 hPa 0,0 l/m 1,6 km/h (1 Bft) NW 315 0 min 0,000 mm 0 W/m 15,0 C 16,8 C 8,0 km/h (2 Bft) 97 %
22.07.2017 02:40 16,8 C 16,8 C 16,8 C 89 % 1010,0 hPa 0,0 l/m 1,6 km/h (1 Bft) NW 315 0 min 0,000 mm 0 W/m 15,0 C 16,8 C 9,7 km/h (2 Bft) 98 %
22.07.2017 02:50 16,8 C 16,8 C 16,8 C 89 % 1010,1 hPa 0,0 l/m 1,6 km/h (1 Bft) NW 315 0 min 0,000 mm 0 W/m 15,0 C 16,8 C 9,7 km/h (2 Bft) 97 %
22.07.2017 03:00 16,7 C 16,7 C 16,8 C 89 % 1010,3 hPa 0,0 l/m 0,0 km/h (0 Bft) S-SW 202 0 min 0,000 mm 0 W/m 14,9 C 16,7 C 6,4 km/h (2 Bft) 98 %
22.07.2017 03:10 16,5 C 16,5 C 16,7 C 89 % 1010,6 hPa 0,0 l/m 0,0 km/h (0 Bft) S 180 0 min 0,000 mm 0 W/m 14,7 C 16,5 C 8,0 km/h (2 Bft) 97 %
22.07.2017 03:20 16,4 C 16,4 C 16,5 C 89 % 1010,5 hPa 0,0 l/m 0,0 km/h (0 Bft) S-SO 157 0 min 0,000 mm 0 W/m 14,6 C 16,4 C 6,4 km/h (2 Bft) 98 %
22.07.2017 03:30 16,4 C 16,4 C 16,4 C 89 % 1010,4 hPa 0,0 l/m 0,0 km/h (0 Bft) S-SO 157 0 min 0,000 mm 0 W/m 14,6 C 16,4 C 8,0 km/h (2 Bft) 98 %
22.07.2017 03:40 16,4 C 16,4 C 16,4 C 89 % 1010,4 hPa 0,0 l/m 0,0 km/h (0 Bft) S-SO 157 0 min 0,000 mm 0 W/m 14,6 C 16,4 C 4,8 km/h (1 Bft) 97 %
22.07.2017 03:50 16,4 C 16,4 C 16,4 C 89 % 1010,6 hPa 0,0 l/m 3,2 km/h (1 Bft) S-SO 157 0 min 0,000 mm 0 W/m 14,6 C 16,4 C 9,7 km/h (2 Bft) 97 %
22.07.2017 04:00 16,4 C 16,4 C 16,4 C 89 % 1010,7 hPa 0,0 l/m 4,8 km/h (1 Bft) SO 135 0 min 0,000 mm 0 W/m 14,6 C 16,4 C 14,5 km/h (3 Bft) 97 %
22.07.2017 04:10 16,3 C 16,3 C 16,4 C 89 % 1010,8 hPa 0,0 l/m 6,4 km/h (2 Bft) S-SO 157 0 min 0,000 mm 0 W/m 14,5 C 16,3 C 17,7 km/h (3 Bft) 97 %
22.07.2017 04:20 16,3 C 16,3 C 16,3 C 89 % 1010,9 hPa 0,0 l/m 3,2 km/h (1 Bft) S-SO 157 0 min 0,000 mm 0 W/m 14,5 C 16,3 C 16,1 km/h (3 Bft) 98 %
22.07.2017 04:30 16,3 C 16,3 C 16,3 C 89 % 1010,9 hPa 0,0 l/m 4,8 km/h (1 Bft) S-SO 157 0 min 0,000 mm 0 W/m 14,5 C 16,3 C 16,1 km/h (3 Bft) 98 %
22.07.2017 04:40 16,2 C 16,2 C 16,3 C 89 % 1011,0 hPa 0,0 l/m 3,2 km/h (1 Bft) SO 135 0 min 0,000 mm 0 W/m 14,4 C 16,2 C 14,5 km/h (3 Bft) 98 %
22.07.2017 04:50 16,1 C 16,1 C 16,2 C 89 % 1010,9 hPa 0,0 l/m 1,6 km/h (1 Bft) S-SO 157 0 min 0,000 mm 0 W/m 14,3 C 16,1 C 9,7 km/h (2 Bft) 97 %
22.07.2017 05:00 16,1 C 16,1 C 16,1 C 89 % 1010,9 hPa 0,0 l/m 0,0 km/h (0 Bft) N 0 0 min 0,000 mm 0 W/m 14,3 C 16,1 C 0,0 km/h (0 Bft) 98 %
22.07.2017 05:10 16,0 C 16,0 C 16,1 C 89 % 1010,9 hPa 0,0 l/m 0,0 km/h (0 Bft) N 0 0 min 0,000 mm 0 W/m 14,2 C 16,0 C 0,0 km/h (0 Bft) 97 %
22.07.2017 05:20 16,0 C 16,0 C 16,0 C 89 % 1010,9 hPa 0,0 l/m 0,0 km/h (0 Bft) N 0 0 min 0,000 mm 0 W/m 14,2 C 16,0 C 0,0 km/h (0 Bft) 97 %
22.07.2017 05:30 16,1 C 16,0 C 16,1 C 89 % 1011,0 hPa 0,0 l/m 0,0 km/h (0 Bft) N 0 0 min 0,000 mm 0 W/m 14,3 C 16,1 C 0,0 km/h (0 Bft) 97 %
22.07.2017 05:40 16,1 C 16,1 C 16,1 C 89 % 1011,0 hPa 0,0 l/m 0,0 km/h (0 Bft) N 0 0 min 0,000 mm 0 W/m 14,3 C 16,1 C 0,0 km/h (0 Bft) 98 %
22.07.2017 05:50 16,1 C 16,1 C 16,1 C 89 % 1011,2 hPa 0,0 l/m 0,0 km/h (0 Bft) N 0 0 min 0,000 mm 0 W/m 14,3 C 16,1 C 0,0 km/h (0 Bft) 98 %
22.07.2017 06:00 16,1 C 16,1 C 16,1 C 89 % 1011,3 hPa 0,0 l/m 0,0 km/h (0 Bft) N 0 0 min 0,000 mm 0 W/m 14,3 C 16,1 C 0,0 km/h (0 Bft) 98 %
22.07.2017 06:10 16,1 C 16,1 C 16,1 C 89 % 1011,4 hPa 0,0 l/m 0,0 km/h (0 Bft) N 0 0 min 0,000 mm 0 W/m 14,3 C 16,1 C 0,0 km/h (0 Bft) 97 %
22.07.2017 06:20 16,1 C 16,1 C 16,1 C 89 % 1011,5 hPa 0,0 l/m 0,0 km/h (0 Bft) N 0 0 min 0,000 mm 5 W/m 14,3 C 16,1 C 0,0 km/h (0 Bft) 97 %
22.07.2017 06:30 16,1 C 16,1 C 16,1 C 89 % 1011,6 hPa 0,2 l/m 0,0 km/h (0 Bft) N 0 0 min 0,000 mm 9 W/m 14,3 C 16,1 C 0,0 km/h (0 Bft) 98 %
22.07.2017 06:40 16,1 C 16,1 C 16,1 C 89 % 1011,7 hPa 0,0 l/m 0,0 km/h (0 Bft) N 0 0 min 0,000 mm 9 W/m 14,3 C 16,1 C 0,0 km/h (0 Bft) 97 %
22.07.2017 06:50 16,1 C 16,1 C 16,1 C 89 % 1011,8 hPa 0,0 l/m 0,0 km/h (0 Bft) N 0 0 min 0,000 mm 7 W/m 14,3 C 16,1 C 0,0 km/h (0 Bft) 90 %
22.07.2017 07:00 16,1 C 16,1 C 16,1 C 89 % 1011,6 hPa 0,0 l/m 0,0 km/h (0 Bft) N 0 0 min 0,000 mm 9 W/m 14,3 C 16,1 C 0,0 km/h (0 Bft) 96 %
22.07.2017 07:10 16,1 C 16,1 C 16,1 C 90 % 1011,7 hPa 0,0 l/m 0,0 km/h (0 Bft) N 0 0 min 0,000 mm 21 W/m 14,5 C 16,1 C 0,0 km/h (0 Bft) 98 %
22.07.2017 07:20 16,2 C 16,1 C 16,2 C 89 % 1011,8 hPa 0,0 l/m 0,0 km/h (0 Bft) N 0 0 min 0,000 mm 40 W/m 14,4 C 16,2 C 0,0 km/h (0 Bft) 98 %
22.07.2017 07:30 16,2 C 16,2 C 16,2 C 89 % 1011,8 hPa 0,0 l/m 0,0 km/h (0 Bft) N 0 0 min 0,000 mm 42 W/m 14,4 C 16,2 C 0,0 km/h (0 Bft) 97 %
22.07.2017 07:40 16,3 C 16,2 C 16,3 C 89 % 1011,9 hPa 0,0 l/m 0,0 km/h (0 Bft) N 0 0 min 0,000 mm 65 W/m 14,5 C 16,3 C 0,0 km/h (0 Bft) 98 %
22.07.2017 07:50 16,5 C 16,3 C 16,5 C 90 % 1012,0 hPa 0,0 l/m 0,0 km/h (0 Bft) N 0 0 min 0,000 mm 93 W/m 14,9 C 16,5 C 0,0 km/h (0 Bft) 98 %
22.07.2017 08:00 16,6 C 16,5 C 16,6 C 90 % 1012,0 hPa 0,0 l/m 0,0 km/h (0 Bft) N 0 0 min 0,025 mm 109 W/m 15,0 C 16,6 C 0,0 km/h (0 Bft) 98 %
22.07.2017 08:10 16,8 C 16,6 C 16,8 C 90 % 1012,1 hPa 0,0 l/m 0,0 km/h (0 Bft) N 0 0 min 0,000 mm 97 W/m 15,1 C 16,8 C 0,0 km/h (0 Bft) 98 %
22.07.2017 08:20 16,9 C 16,8 C 16,9 C 90 % 1012,3 hPa 0,0 l/m 0,0 km/h (0 Bft) N 0 0 min 0,000 mm 90 W/m 15,2 C 16,9 C 0,0 km/h (0 Bft) 98 %
22.07.2017 08:30 17,1 C 16,9 C 17,1 C 90 % 1012,4 hPa 0,0 l/m 0,0 km/h (0 Bft) N 0 10 min 0,000 mm 183 W/m 15,4 C 17,1 C 0,0 km/h (0 Bft) 97 %
22.07.2017 08:40 17,3 C 17,1 C 17,3 C 90 % 1012,4 hPa 0,0 l/m 0,0 km/h (0 Bft) N 0 10 min 0,000 mm 206 W/m 15,6 C 17,3 C 0,0 km/h (0 Bft) 98 %
22.07.2017 08:50 17,7 C 17,3 C 17,7 C 90 % 1012,4 hPa 0,0 l/m 0,0 km/h (0 Bft) N 0 10 min 0,000 mm 380 W/m 16,0 C 17,7 C 0,0 km/h (0 Bft) 98 %
22.07.2017 09:00 18,1 C 17,7 C 18,1 C 90 % 1012,4 hPa 0,0 l/m 0,0 km/h (0 Bft) N 0 10 min 0,102 mm 513 W/m 16,4 C 18,1 C 0,0 km/h (0 Bft) 97 %
22.07.2017 09:10 18,1 C 18,1 C 18,1 C 90 % 1012,5 hPa 0,0 l/m 0,0 km/h (0 Bft) S-SO 157 10 min 0,000 mm 529 W/m 16,4 C 18,1 C 1,6 km/h (1 Bft) 97 %
22.07.2017 09:20 18,1 C 18,0 C 18,2 C 89 % 1012,7 hPa 0,0 l/m 0,0 km/h (0 Bft) N 0 10 min 0,000 mm 596 W/m 16,3 C 18,1 C 0,0 km/h (0 Bft) 98 %
22.07.2017 09:30 18,4 C 18,1 C 18,4 C 89 % 1012,6 hPa 0,0 l/m 0,0 km/h (0 Bft) N 0 10 min 0,000 mm 621 W/m 16,6 C 18,4 C 0,0 km/h (0 Bft) 98 %
22.07.2017 09:40 19,1 C 18,4 C 19,1 C 89 % 1012,6 hPa 0,0 l/m 0,0 km/h (0 Bft) S 180 10 min 0,000 mm 643 W/m 17,2 C 19,1 C 4,8 km/h (1 Bft) 97 %
22.07.2017 09:50 19,7 C 19,1 C 19,7 C 89 % 1012,8 hPa 0,0 l/m 3,2 km/h (1 Bft) S-SW 202 10 min 0,000 mm 728 W/m 17,8 C 19,7 C 12,9 km/h (3 Bft) 97 %
22.07.2017 10:00 20,1 C 19,8 C 20,1 C 89 % 1012,8 hPa 0,0 l/m 0,0 km/h (0 Bft) S-SW 202 10 min 0,229 mm 805 W/m 18,2 C 20,1 C 9,7 km/h (2 Bft) 98 %
22.07.2017 10:10 20,9 C 20,1 C 20,9 C 89 % 1012,8 hPa 0,0 l/m 0,0 km/h (0 Bft) S-SW 202 10 min 0,000 mm 763 W/m 19,0 C 20,9 C 1,6 km/h (1 Bft) 98 %
22.07.2017 10:20 21,3 C 20,9 C 21,3 C 88 % 1012,8 hPa 0,0 l/m 0,0 km/h (0 Bft) S-SW 202 10 min 0,000 mm 863 W/m 19,2 C 21,3 C 1,6 km/h (1 Bft) 97 %
22.07.2017 10:30 21,5 C 21,2 C 21,5 C 87 % 1012,9 hPa 0,0 l/m 0,0 km/h (0 Bft) S 180 10 min 0,000 mm 865 W/m 19,2 C 21,5 C 1,6 km/h (1 Bft) 97 %
22.07.2017 10:40 21,6 C 21,5 C 21,6 C 84 % 1012,8 hPa 0,0 l/m 0,0 km/h (0 Bft) S 180 10 min 0,000 mm 889 W/m 18,8 C 21,6 C 6,4 km/h (2 Bft) 97 %
22.07.2017 10:50 21,9 C 21,6 C 21,9 C 84 % 1012,8 hPa 0,0 l/m 1,6 km/h (1 Bft) SO 135 10 min 0,000 mm 853 W/m 19,1 C 21,9 C 9,7 km/h (2 Bft) 97 %
22.07.2017 11:00 22,5 C 21,9 C 22,5 C 79 % 1012,9 hPa 0,0 l/m 0,0 km/h (0 Bft) SW 225 10 min 0,432 mm 870 W/m 18,7 C 22,5 C 1,6 km/h (1 Bft) 98 %
22.07.2017 11:10 22,7 C 22,5 C 22,7 C 80 % 1012,9 hPa 0,0 l/m 1,6 km/h (1 Bft) SW 225 10 min 0,000 mm 939 W/m 19,1 C 22,7 C 9,7 km/h (2 Bft) 97 %
22.07.2017 11:20 22,7 C 22,6 C 22,7 C 80 % 1013,0 hPa 0,0 l/m 1,6 km/h (1 Bft) S-SO 157 10 min 0,000 mm 953 W/m 19,1 C 22,7 C 9,7 km/h (2 Bft) 98 %
22.07.2017 11:30 23,0 C 22,7 C 23,0 C 80 % 1012,9 hPa 0,0 l/m 1,6 km/h (1 Bft) SW 225 10 min 0,000 mm 951 W/m 19,4 C 23,0 C 11,3 km/h (2 Bft) 98 %
22.07.2017 11:40 22,6 C 22,6 C 23,0 C 79 % 1012,9 hPa 0,0 l/m 0,0 km/h (0 Bft) SW 225 10 min 0,000 mm 411 W/m 18,8 C 22,6 C 8,0 km/h (2 Bft) 97 %
22.07.2017 11:50 22,7 C 22,6 C 22,7 C 79 % 1012,9 hPa 0,0 l/m 1,6 km/h (1 Bft) S-SW 202 10 min 0,000 mm 380 W/m 18,9 C 22,7 C 6,4 km/h (2 Bft) 97 %
22.07.2017 12:00 22,8 C 22,6 C 22,8 C 82 % 1012,9 hPa 0,0 l/m 0,0 km/h (0 Bft) N 0 10 min 0,356 mm 454 W/m 19,6 C 22,8 C 0,0 km/h (0 Bft) 98 %
22.07.2017 12:10 22,9 C 22,6 C 23,0 C 77 % 1012,9 hPa 0,0 l/m 2,6 km/h (1 Bft) SO 130 10 min 0,000 mm 461 W/m 18,6 C 22,9 C 11,3 km/h (2 Bft) 100 %
22.07.2017 12:20 23,3 C 22,9 C 23,3 C 76 % 1013,0 hPa 0,0 l/m 2,5 km/h (1 Bft) S 190 10 min 0,000 mm 288 W/m 18,8 C 23,3 C 11,3 km/h (2 Bft) 100 %
22.07.2017 12:30 23,2 C 23,1 C 23,3 C 78 % 1012,9 hPa 0,0 l/m 1,4 km/h (1 Bft) S-SO 165 10 min 0,000 mm 406 W/m 19,1 C 23,2 C 14,5 km/h (3 Bft) 100 %
22.07.2017 12:40 23,6 C 23,2 C 23,6 C 76 % 1012,9 hPa 0,0 l/m 1,7 km/h (1 Bft) S-SO 153 10 min 0,000 mm 947 W/m 19,1 C 23,6 C 9,7 km/h (2 Bft) 100 %
22.07.2017 12:50 23,6 C 23,6 C 23,8 C 75 % 1012,9 hPa 0,0 l/m 1,1 km/h (1 Bft) SO 144 10 min 0,000 mm 294 W/m 18,9 C 23,6 C 9,7 km/h (2 Bft) 100 %
22.07.2017 13:00 23,7 C 23,5 C 23,7 C 76 % 1012,7 hPa 0,0 l/m 0,0 km/h (0 Bft) S-SW 196 10 min 0,355 mm 1116 W/m 19,2 C 23,7 C 1,6 km/h (1 Bft) 100 %
22.07.2017 13:10 24,1 C 23,6 C 24,2 C 74 % 1012,7 hPa 0,0 l/m 0,6 km/h (0 Bft) SW 224 10 min 0,000 mm 397 W/m 19,2 C 24,1 C 8,0 km/h (2 Bft) 100 %
22.07.2017 13:20 24,4 C 24,1 C 24,4 C 69 % 1012,6 hPa 0,0 l/m 1,1 km/h (1 Bft) SO 142 10 min 0,000 mm 816 W/m 18,3 C 24,4 C 9,7 km/h (2 Bft) 100 %
22.07.2017 13:30 24,2 C 24,2 C 24,4 C 71 % 1012,6 hPa 0,0 l/m 0,3 km/h (0 Bft) SO 141 10 min 0,000 mm 287 W/m 18,6 C 24,2 C 6,4 km/h (2 Bft) 100 %
22.07.2017 13:40 24,0 C 24,0 C 24,2 C 70 % 1012,6 hPa 0,0 l/m 1,0 km/h (0 Bft) S-SW 192 10 min 0,000 mm 243 W/m 18,2 C 24,0 C 14,5 km/h (3 Bft) 100 %
22.07.2017 13:50 23,9 C 23,9 C 24,0 C 72 % 1012,6 hPa 0,0 l/m 0,0 km/h (0 Bft) S-SW 192 10 min 0,000 mm 276 W/m 18,5 C 23,9 C 0,0 km/h (0 Bft) 100 %
22.07.2017 14:00 23,9 C 23,9 C 23,9 C 71 % 1012,5 hPa 0,0 l/m 0,4 km/h (0 Bft) O-SO 117 10 min 0,280 mm 330 W/m 18,3 C 23,9 C 8,0 km/h (2 Bft) 100 %
22.07.2017 14:10 23,8 C 23,8 C 23,9 C 73 % 1012,6 hPa 0,0 l/m 0,0 km/h (0 Bft) S-SO 149 10 min 0,000 mm 218 W/m 18,7 C 23,8 C 1,6 km/h (1 Bft) 100 %
22.07.2017 14:20 23,6 C 23,6 C 23,8 C 74 % 1012,5 hPa 0,0 l/m 0,1 km/h (0 Bft) S-SO 167 10 min 0,000 mm 360 W/m 18,7 C 23,6 C 4,8 km/h (1 Bft) 100 %
22.07.2017 14:30 23,8 C 23,6 C 23,8 C 71 % 1012,5 hPa 0,0 l/m 1,2 km/h (1 Bft) SO 128 10 min 0,000 mm 360 W/m 18,2 C 23,8 C 11,3 km/h (2 Bft) 100 %
22.07.2017 14:40 24,2 C 23,8 C 24,2 C 71 % 1012,3 hPa 0,0 l/m 0,5 km/h (0 Bft) O-SO 103 10 min 0,000 mm 867 W/m 18,6 C 24,2 C 9,7 km/h (2 Bft) 100 %
22.07.2017 14:50 24,8 C 24,2 C 24,8 C 71 % 1012,2 hPa 0,0 l/m 2,5 km/h (1 Bft) SW 218 10 min 0,000 mm 844 W/m 19,2 C 24,8 C 11,3 km/h (2 Bft) 100 %
22.07.2017 15:00 25,3 C 24,8 C 25,3 C 66 % 1012,0 hPa 0,0 l/m 1,3 km/h (1 Bft) SW 220 10 min 0,355 mm 793 W/m 18,5 C 25,3 C 16,1 km/h (3 Bft) 100 %
22.07.2017 15:10 25,5 C 25,3 C 25,6 C 64 % 1012,1 hPa 0,0 l/m 4,9 km/h (1 Bft) SO 128 10 min 0,000 mm 765 W/m 18,2 C 25,5 C 16,1 km/h (3 Bft) 100 %
22.07.2017 15:20 25,3 C 25,3 C 25,5 C 64 % 1012,2 hPa 0,0 l/m 2,6 km/h (1 Bft) O-SO 119 10 min 0,000 mm 229 W/m 18,0 C 25,3 C 14,5 km/h (3 Bft) 100 %
22.07.2017 15:30 24,9 C 24,9 C 25,3 C 66 % 1012,1 hPa 0,0 l/m 2,4 km/h (1 Bft) S-SO 165 0 min 0,000 mm 111 W/m 18,1 C 24,9 C 12,9 km/h (3 Bft) 100 %
22.07.2017 15:40 24,3 C 24,3 C 24,9 C 66 % 1011,9 hPa 0,0 l/m 0,6 km/h (0 Bft) S-SO 148 0 min 0,000 mm 123 W/m 17,5 C 24,3 C 8,0 km/h (2 Bft) 100 %
22.07.2017 15:50 24,0 C 24,0 C 24,3 C 67 % 1011,9 hPa 0,0 l/m 0,0 km/h (0 Bft) SO 143 0 min 0,000 mm 146 W/m 17,5 C 24,0 C 0,0 km/h (0 Bft) 100 %
22.07.2017 16:00 24,0 C 23,9 C 24,0 C 70 % 1012,0 hPa 0,0 l/m 0,0 km/h (0 Bft) S-SO 166 10 min 0,204 mm 301 W/m 18,2 C 24,0 C 1,6 km/h (1 Bft) 100 %
22.07.2017 16:10 24,3 C 24,0 C 24,3 C 72 % 1012,0 hPa 0,0 l/m 0,8 km/h (0 Bft) S 178 10 min 0,000 mm 339 W/m 18,9 C 24,3 C 8,0 km/h (2 Bft) 99 %
22.07.2017 16:20 24,6 C 24,3 C 24,6 C 69 % 1011,9 hPa 0,0 l/m 0,0 km/h (0 Bft) S 181 10 min 0,000 mm 269 W/m 18,5 C 24,6 C 1,6 km/h (1 Bft) 100 %
22.07.2017 16:30 24,7 C 24,6 C 24,7 C 66 % 1012,0 hPa 0,0 l/m 0,3 km/h (0 Bft) S 170 10 min 0,000 mm 193 W/m 17,9 C 24,7 C 6,4 km/h (2 Bft) 100 %
22.07.2017 16:40 24,6 C 24,6 C 24,7 C 68 % 1012,0 hPa 0,0 l/m 0,0 km/h (0 Bft) S 170 10 min 0,000 mm 204 W/m 18,3 C 24,6 C 0,0 km/h (0 Bft) 100 %
22.07.2017 16:50 24,6 C 24,6 C 24,6 C 70 % 1012,0 hPa 0,0 l/m 0,0 km/h (0 Bft) SO 125 10 min 0,000 mm 250 W/m 18,8 C 24,6 C 1,6 km/h (1 Bft) 100 %
22.07.2017 17:00 24,6 C 24,6 C 24,6 C 68 % 1011,8 hPa 0,0 l/m 0,0 km/h (0 Bft) O-SO 123 10 min 0,177 mm 295 W/m 18,3 C 24,6 C 1,6 km/h (1 Bft) 100 %
22.07.2017 17:10 25,2 C 24,6 C 25,2 C 70 % 1011,8 hPa 0,0 l/m 0,3 km/h (0 Bft) W-SW 237 0 min 0,000 mm 111 W/m 19,3 C 25,2 C 8,0 km/h (2 Bft) 100 %
22.07.2017 17:20 25,6 C 25,2 C 25,6 C 63 % 1011,6 hPa 0,0 l/m 1,6 km/h (1 Bft) SO 131 0 min 0,000 mm 83 W/m 18,0 C 25,6 C 8,0 km/h (2 Bft) 100 %
22.07.2017 17:30 25,7 C 25,6 C 25,7 C 64 % 1011,4 hPa 0,0 l/m 1,4 km/h (1 Bft) W-SW 247 0 min 0,000 mm 72 W/m 18,4 C 25,7 C 11,3 km/h (2 Bft) 100 %
22.07.2017 17:40 25,9 C 25,7 C 25,9 C 62 % 1011,5 hPa 0,0 l/m 2,7 km/h (1 Bft) S-SO 155 0 min 0,000 mm 67 W/m 18,0 C 25,9 C 14,5 km/h (3 Bft) 100 %
22.07.2017 17:50 25,9 C 25,8 C 25,9 C 66 % 1011,5 hPa 0,0 l/m 1,1 km/h (1 Bft) S 190 0 min 0,000 mm 58 W/m 19,0 C 25,9 C 8,0 km/h (2 Bft) 100 %
22.07.2017 18:00 26,0 C 25,9 C 26,0 C 61 % 1011,5 hPa 0,0 l/m 2,0 km/h (1 Bft) SO 142 0 min 0,077 mm 69 W/m 17,9 C 26,0 C 16,1 km/h (3 Bft) 100 %
22.07.2017 18:10 25,8 C 25,8 C 26,0 C 63 % 1011,4 hPa 0,0 l/m 1,6 km/h (1 Bft) S 188 0 min 0,000 mm 63 W/m 18,2 C 25,8 C 11,3 km/h (2 Bft) 100 %
22.07.2017 18:20 25,8 C 25,8 C 25,8 C 62 % 1011,4 hPa 0,0 l/m 0,4 km/h (0 Bft) S-SW 193 0 min 0,000 mm 62 W/m 18,0 C 25,8 C 6,4 km/h (2 Bft) 100 %
22.07.2017 18:30 25,8 C 25,7 C 25,8 C 61 % 1011,4 hPa 0,0 l/m 0,0 km/h (0 Bft) S 175 0 min 0,000 mm 58 W/m 17,7 C 25,8 C 1,6 km/h (1 Bft) 100 %
22.07.2017 18:40 25,8 C 25,8 C 25,8 C 61 % 1011,3 hPa 0,0 l/m 0,7 km/h (0 Bft) S-SO 157 0 min 0,000 mm 56 W/m 17,7 C 25,8 C 8,0 km/h (2 Bft) 100 %
22.07.2017 18:50 25,7 C 25,7 C 25,8 C 61 % 1011,3 hPa 0,0 l/m 0,5 km/h (0 Bft) SO 144 0 min 0,000 mm 56 W/m 17,6 C 25,7 C 6,4 km/h (2 Bft) 100 %
22.07.2017 19:00 25,6 C 25,6 C 25,7 C 62 % 1011,3 hPa 0,0 l/m 0,8 km/h (0 Bft) SO 146 0 min 0,050 mm 51 W/m 17,8 C 25,6 C 6,4 km/h (2 Bft) 100 %
22.07.2017 19:10 25,6 C 25,6 C 25,6 C 63 % 1011,2 hPa 0,0 l/m 0,3 km/h (0 Bft) S-SO 158 0 min 0,000 mm 49 W/m 18,0 C 25,6 C 6,4 km/h (2 Bft) 100 %
22.07.2017 19:20 25,5 C 25,5 C 25,6 C 64 % 1011,1 hPa 0,0 l/m 0,1 km/h (0 Bft) S-SW 212 0 min 0,000 mm 51 W/m 18,2 C 25,5 C 6,4 km/h (2 Bft) 100 %
22.07.2017 19:30 25,4 C 25,4 C 25,5 C 63 % 1011,0 hPa 0,0 l/m 0,3 km/h (0 Bft) S-SW 213 0 min 0,000 mm 56 W/m 17,8 C 25,4 C 8,0 km/h (2 Bft) 100 %
22.07.2017 19:40 25,4 C 25,4 C 25,4 C 63 % 1010,9 hPa 0,0 l/m 0,2 km/h (0 Bft) SW 217 0 min 0,000 mm 74 W/m 17,8 C 25,4 C 6,4 km/h (2 Bft) 100 %
22.07.2017 19:50 25,2 C 25,2 C 25,4 C 64 % 1010,8 hPa 0,0 l/m 0,4 km/h (0 Bft) S 189 0 min 0,000 mm 46 W/m 17,9 C 25,2 C 9,7 km/h (2 Bft) 100 %
22.07.2017 20:00 24,9 C 24,9 C 25,2 C 66 % 1011,0 hPa 0,0 l/m 0,0 km/h (0 Bft) S 189 0 min 0,051 mm 25 W/m 18,1 C 24,9 C 0,0 km/h (0 Bft) 100 %
22.07.2017 20:10 24,4 C 24,4 C 24,9 C 68 % 1011,1 hPa 0,0 l/m 0,0 km/h (0 Bft) S 189 0 min 0,000 mm 18 W/m 18,1 C 24,4 C 0,0 km/h (0 Bft) 100 %
22.07.2017 20:20 24,0 C 24,0 C 24,4 C 73 % 1011,1 hPa 0,0 l/m 0,0 km/h (0 Bft) S 189 0 min 0,000 mm 18 W/m 18,9 C 24,0 C 0,0 km/h (0 Bft) 100 %
22.07.2017 20:30 23,6 C 23,6 C 24,0 C 72 % 1011,1 hPa 0,0 l/m 0,0 km/h (0 Bft) S 189 0 min 0,000 mm 16 W/m 18,2 C 23,6 C 0,0 km/h (0 Bft) 100 %
22.07.2017 20:40 23,0 C 23,0 C 23,6 C 73 % 1011,0 hPa 0,0 l/m 0,0 km/h (0 Bft) S 189 0 min 0,000 mm 16 W/m 17,9 C 23,0 C 0,0 km/h (0 Bft) 100 %
22.07.2017 20:50 22,5 C 22,5 C 23,0 C 75 % 1011,1 hPa 0,0 l/m 0,0 km/h (0 Bft) S 189 0 min 0,000 mm 12 W/m 17,8 C 22,5 C 0,0 km/h (0 Bft) 100 %
22.07.2017 21:00 22,2 C 22,2 C 22,5 C 75 % 1011,2 hPa 0,0 l/m 0,1 km/h (0 Bft) N-NO 28 0 min 0,026 mm 11 W/m 17,5 C 22,2 C 4,8 km/h (1 Bft) 100 %
22.07.2017 21:10 21,9 C 21,9 C 22,2 C 76 % 1011,3 hPa 0,0 l/m 0,0 km/h (0 Bft) N 0 0 min 0,000 mm 9 W/m 17,5 C 21,9 C 0,0 km/h (0 Bft) 98 %
22.07.2017 21:20 21,7 C 21,7 C 21,9 C 76 % 1011,3 hPa 0,0 l/m 0,0 km/h (0 Bft) N 0 0 min 0,000 mm 5 W/m 17,3 C 21,7 C 0,0 km/h (0 Bft) 97 %
22.07.2017 21:30 21,4 C 21,4 C 21,7 C 77 % 1011,2 hPa 0,0 l/m 0,0 km/h (0 Bft) N 0 0 min 0,000 mm 0 W/m 17,2 C 21,4 C 0,0 km/h (0 Bft) 98 %
22.07.2017 21:40 21,2 C 21,2 C 21,4 C 78 % 1011,0 hPa 0,0 l/m 0,0 km/h (0 Bft) N 0 0 min 0,000 mm 0 W/m 17,2 C 21,2 C 0,0 km/h (0 Bft) 98 %
22.07.2017 21:50 21,0 C 21,0 C 21,2 C 80 % 1011,2 hPa 0,0 l/m 0,0 km/h (0 Bft) N 0 0 min 0,000 mm 0 W/m 17,4 C 21,0 C 0,0 km/h (0 Bft) 97 %
22.07.2017 22:00 20,7 C 20,7 C 21,0 C 81 % 1011,2 hPa 0,0 l/m 0,0 km/h (0 Bft) N 0 0 min 0,000 mm 0 W/m 17,3 C 20,7 C 0,0 km/h (0 Bft) 97 %
22.07.2017 22:10 20,4 C 20,4 C 20,7 C 82 % 1011,0 hPa 0,0 l/m 0,0 km/h (0 Bft) N 0 0 min 0,000 mm 0 W/m 17,2 C 20,4 C 0,0 km/h (0 Bft) 97 %
22.07.2017 22:20 20,3 C 20,3 C 20,4 C 83 % 1010,7 hPa 0,0 l/m 0,0 km/h (0 Bft) N 0 0 min 0,000 mm 0 W/m 17,3 C 20,3 C 0,0 km/h (0 Bft) 98 %
22.07.2017 22:30 20,1 C 20,1 C 20,3 C 84 % 1010,8 hPa 0,0 l/m 0,0 km/h (0 Bft) N 0 0 min 0,000 mm 0 W/m 17,3 C 20,1 C 0,0 km/h (0 Bft) 97 %
22.07.2017 22:40 19,9 C 19,9 C 20,1 C 85 % 1010,5 hPa 0,0 l/m 0,0 km/h (0 Bft) N 0 0 min 0,000 mm 0 W/m 17,3 C 19,9 C 0,0 km/h (0 Bft) 97 %
22.07.2017 22:50 19,8 C 19,8 C 19,9 C 86 % 1010,6 hPa 0,0 l/m 0,0 km/h (0 Bft) N 0 0 min 0,000 mm 0 W/m 17,4 C 19,8 C 0,0 km/h (0 Bft) 97 %
22.07.2017 23:00 19,6 C 19,6 C 19,8 C 86 % 1010,8 hPa 0,0 l/m 0,0 km/h (0 Bft) N 0 0 min 0,025 mm 0 W/m 17,2 C 19,6 C 0,0 km/h (0 Bft) 97 %
22.07.2017 23:10 19,5 C 19,5 C 19,6 C 87 % 1010,9 hPa 0,0 l/m 0,0 km/h (0 Bft) N 0 0 min 0,000 mm 0 W/m 17,3 C 19,5 C 0,0 km/h (0 Bft) 98 %
22.07.2017 23:20 19,3 C 19,3 C 19,5 C 87 % 1011,0 hPa 0,0 l/m 0,0 km/h (0 Bft) N 0 0 min 0,000 mm 0 W/m 17,1 C 19,3 C 0,0 km/h (0 Bft) 97 %
22.07.2017 23:30 19,2 C 19,2 C 19,3 C 87 % 1011,3 hPa 0,0 l/m 0,0 km/h (0 Bft) N 0 0 min 0,000 mm 0 W/m 17,0 C 19,2 C 0,0 km/h (0 Bft) 98 %
22.07.2017 23:40 19,2 C 19,2 C 19,2 C 87 % 1011,0 hPa 0,0 l/m 0,0 km/h (0 Bft) N 0 0 min 0,000 mm 0 W/m 17,0 C 19,2 C 0,0 km/h (0 Bft) 97 %
22.07.2017 23:50 19,2 C 19,2 C 19,2 C 88 % 1011,2 hPa 0,0 l/m 0,0 km/h (0 Bft) N 0 0 min 0,000 mm 0 W/m 17,2 C 19,2 C 0,0 km/h (0 Bft) 98 %
_ Min-Zeit 05:10 05:10 05:20 18:00 02:40 - 01:00 - - - - - 05:10 00:30 01:00 06:50
Minimum _ 16,0 C 16,0 C 16,0 C 61 % 1010,0 hPa - 0,0 km/h (0 Bft) - - - - - 14,2 C 15,2 C 0,0 km/h (0 Bft) 90 %
_ Max-Zeit 18:00 18:00 18:00 07:10 11:20 00:50 00:30 - - 08:30 11:00 13:00 12:00 18:00 00:30 12:10
Maximum _ 26,0 C 25,9 C 26,0 C 90 % 1013,0 hPa 2,8 l/m 11,3 km/h
S-SO (2 Bft)
- - 10 min 0,432 mm 1116 W/m 19,6 C 26,0 C 29,0 km/h
SO (5 Bft)
100 %
Durchschnitt _ 20,6 C 20,5 C 20,7 C 80 % 1011,7 hPa #11,0 l/m 0,9 km/h (0 Bft) SO - #8:10 h #2,794 mm 316 W/m 16,8 C 20,6 C 5,3 km/h (1 Bft) 98 %
PRIVATE WETTERSTATION BILLIGHEIM-ALLFELD - www.neckar-odenwald-wetter.de - Holger Sonntag